Etusivu
METAR-TAF:

METAR-TAF

Lentoasemat :

Ipiales, Kolumbia

Leveyspiiri: 00-49N, Pituuspiiri: 077-38W, korkeus merenpinnasta: 2961 m

Tämänhetkinen sää

Tämä raportti tehtiin 2 tuntia ja 50 minuuttia sitten, kello 23.00 UTC
Tuuli 4 kn pohjoisesta, vaihdellen lännen/luoteen ja koillisen välillä
Lämpötila 15°C
Kosteus 77%
Ilmanpaine 1027 hPa
Näkyvyys 10 km tai enemmän
Muutamia pilviä 2000 ft:n korkeudessa

METAR: SKIP 232300Z 35004KT 290V040 9999 FEW020 15/11 Q1027

Aika: 20:50 (01:50 UTC)


TAF: puuttuu

Säähavainnot ja -ennusteet yli 4000 lentoasemalta (METAR- ja TAF-raportit).

Käytössä olevat sääasemat on merkitty karttaan keltaisilla ja punaisilla pisteillä.

Aseta hiiri pisteen päälle nähdäksesi sääaseman nimen.

Klikkaa sitten nähdäksesi säähavainnot ja -ennusteet.

Kartan vaihtaminen: klikkaa mustalla rastilla varustettuja vihreitä pisteitä, niin voit zoomata sisään; viivalla varustettua vihreää pistettä, niin voit zoomata ulos tai vihreitä nuolia, niin pääset viereisille kartoille.


METAR-TAF: